sensor_id;sensor_type;location;lat;lon;timestamp;temperature;humidity
20158;DHT22;10239;56.820;24.416;2023-01-28T00:01:15;0.80;99.90
20158;DHT22;10239;56.820;24.416;2023-01-28T00:03:43;0.90;99.90
20158;DHT22;10239;56.820;24.416;2023-01-28T00:06:13;1.00;99.90
20158;DHT22;10239;56.820;24.416;2023-01-28T00:08:41;1.10;99.90
20158;DHT22;10239;56.820;24.416;2023-01-28T00:11:10;1.00;99.90
20158;DHT22;10239;56.820;24.416;2023-01-28T00:13:39;1.00;99.90
20158;DHT22;10239;56.820;24.416;2023-01-28T00:16:08;1.10;99.90
20158;DHT22;10239;56.820;24.416;2023-01-28T00:18:36;1.20;99.90
20158;DHT22;10239;56.820;24.416;2023-01-28T00:21:09;1.20;99.90
20158;DHT22;10239;56.820;24.416;2023-01-28T00:23:39;0.70;99.90
20158;DHT22;10239;56.820;24.416;2023-01-28T00:26:10;0.60;99.90
20158;DHT22;10239;56.820;24.416;2023-01-28T00:28:42;0.70;99.90
20158;DHT22;10239;56.820;24.416;2023-01-28T00:31:30;0.70;99.90
20158;DHT22;10239;56.820;24.416;2023-01-28T00:33:59;0.70;99.90
20158;DHT22;10239;56.820;24.416;2023-01-28T00:36:26;0.80;99.90
20158;DHT22;10239;56.820;24.416;2023-01-28T00:38:56;0.80;99.90
20158;DHT22;10239;56.820;24.416;2023-01-28T00:41:27;0.70;99.90
20158;DHT22;10239;56.820;24.416;2023-01-28T00:43:57;0.80;99.90
20158;DHT22;10239;56.820;24.416;2023-01-28T00:46:25;0.80;99.90
20158;DHT22;10239;56.820;24.416;2023-01-28T00:48:53;0.80;99.90
20158;DHT22;10239;56.820;24.416;2023-01-28T00:51:21;0.60;99.90
20158;DHT22;10239;56.820;24.416;2023-01-28T00:53:49;0.60;99.90
20158;DHT22;10239;56.820;24.416;2023-01-28T00:56:17;0.90;99.90
20158;DHT22;10239;56.820;24.416;2023-01-28T00:58:46;1.00;99.90
20158;DHT22;10239;56.820;24.416;2023-01-28T01:01:15;0.70;99.90
20158;DHT22;10239;56.820;24.416;2023-01-28T01:03:43;0.50;99.90
20158;DHT22;10239;56.820;24.416;2023-01-28T01:06:12;0.40;99.90
20158;DHT22;10239;56.820;24.416;2023-01-28T01:08:40;0.30;99.90
20158;DHT22;10239;56.820;24.416;2023-01-28T01:11:10;0.40;99.90
20158;DHT22;10239;56.820;24.416;2023-01-28T01:13:37;0.30;99.90
20158;DHT22;10239;56.820;24.416;2023-01-28T01:16:08;0.10;99.90
20158;DHT22;10239;56.820;24.416;2023-01-28T01:18:37;0.30;99.90
20158;DHT22;10239;56.820;24.416;2023-01-28T01:21:10;0.30;99.90
20158;DHT22;10239;56.820;24.416;2023-01-28T01:23:38;-0.20;99.90
20158;DHT22;10239;56.820;24.416;2023-01-28T01:26:06;-0.30;99.90
20158;DHT22;10239;56.820;24.416;2023-01-28T01:28:34;0.10;99.90
20158;DHT22;10239;56.820;24.416;2023-01-28T01:31:14;0.40;99.90
20158;DHT22;10239;56.820;24.416;2023-01-28T01:33:44;0.50;99.90
20158;DHT22;10239;56.820;24.416;2023-01-28T01:36:14;0.50;99.90
20158;DHT22;10239;56.820;24.416;2023-01-28T01:38:43;0.60;99.90
20158;DHT22;10239;56.820;24.416;2023-01-28T01:41:32;0.60;99.90
20158;DHT22;10239;56.820;24.416;2023-01-28T01:44:02;0.60;99.90
20158;DHT22;10239;56.820;24.416;2023-01-28T01:49:28;0.30;99.90
20158;DHT22;10239;56.820;24.416;2023-01-28T01:52:05;0.20;99.90
20158;DHT22;10239;56.820;24.416;2023-01-28T01:54:36;0.40;99.90
20158;DHT22;10239;56.820;24.416;2023-01-28T01:57:07;0.50;99.90
20158;DHT22;10239;56.820;24.416;2023-01-28T01:59:37;0.70;99.90
20158;DHT22;10239;56.820;24.416;2023-01-28T02:02:07;0.60;99.90
20158;DHT22;10239;56.820;24.416;2023-01-28T02:04:40;0.60;99.90
20158;DHT22;10239;56.820;24.416;2023-01-28T02:07:10;0.60;99.90
20158;DHT22;10239;56.820;24.416;2023-01-28T02:09:39;0.70;99.90
20158;DHT22;10239;56.820;24.416;2023-01-28T02:12:18;0.80;99.90
20158;DHT22;10239;56.820;24.416;2023-01-28T02:14:52;0.90;99.90
20158;DHT22;10239;56.820;24.416;2023-01-28T02:17:21;0.80;99.90
20158;DHT22;10239;56.820;24.416;2023-01-28T02:25:07;0.80;99.90
20158;DHT22;10239;56.820;24.416;2023-01-28T02:27:56;0.90;99.90
20158;DHT22;10239;56.820;24.416;2023-01-28T02:30:33;0.80;99.90
20158;DHT22;10239;56.820;24.416;2023-01-28T02:36:09;0.90;99.90
20158;DHT22;10239;56.820;24.416;2023-01-28T02:38:45;0.90;99.90
20158;DHT22;10239;56.820;24.416;2023-01-28T02:41:28;0.90;99.90
20158;DHT22;10239;56.820;24.416;2023-01-28T02:43:57;0.90;99.90
20158;DHT22;10239;56.820;24.416;2023-01-28T02:49:18;0.80;99.90
20158;DHT22;10239;56.820;24.416;2023-01-28T02:54:57;0.60;99.90
20158;DHT22;10239;56.820;24.416;2023-01-28T03:00:17;0.20;99.90
20158;DHT22;10239;56.820;24.416;2023-01-28T03:02:51;0.30;99.90
20158;DHT22;10239;56.820;24.416;2023-01-28T03:05:34;-0.10;99.90
20158;DHT22;10239;56.820;24.416;2023-01-28T03:08:04;0.10;99.90
20158;DHT22;10239;56.820;24.416;2023-01-28T03:10:55;0.30;99.90
20158;DHT22;10239;56.820;24.416;2023-01-28T03:13:43;0.00;99.90
20158;DHT22;10239;56.820;24.416;2023-01-28T03:16:32;-0.10;99.90
20158;DHT22;10239;56.820;24.416;2023-01-28T03:19:20;0.00;99.90
20158;DHT22;10239;56.820;24.416;2023-01-28T03:22:06;-0.10;99.90
20158;DHT22;10239;56.820;24.416;2023-01-28T03:24:53;0.10;99.90
20158;DHT22;10239;56.820;24.416;2023-01-28T03:27:59;0.20;99.90
20158;DHT22;10239;56.820;24.416;2023-01-28T03:31:06;0.20;99.90
20158;DHT22;10239;56.820;24.416;2023-01-28T03:33:57;-0.20;99.90
20158;DHT22;10239;56.820;24.416;2023-01-28T03:36:46;-0.30;99.90
20158;DHT22;10239;56.820;24.416;2023-01-28T03:39:34;-0.40;99.90
20158;DHT22;10239;56.820;24.416;2023-01-28T03:44:31;-0.30;99.90
20158;DHT22;10239;56.820;24.416;2023-01-28T03:47:24;-0.40;99.90
20158;DHT22;10239;56.820;24.416;2023-01-28T03:49:53;-0.30;99.90
20158;DHT22;10239;56.820;24.416;2023-01-28T03:52:32;-0.40;99.90
20158;DHT22;10239;56.820;24.416;2023-01-28T03:55:20;-0.20;99.90
20158;DHT22;10239;56.820;24.416;2023-01-28T03:57:50;0.10;99.90
20158;DHT22;10239;56.820;24.416;2023-01-28T04:00:18;0.00;99.90
20158;DHT22;10239;56.820;24.416;2023-01-28T04:02:47;0.00;99.90
20158;DHT22;10239;56.820;24.416;2023-01-28T04:05:18;0.10;99.90
20158;DHT22;10239;56.820;24.416;2023-01-28T04:07:48;0.00;99.90
20158;DHT22;10239;56.820;24.416;2023-01-28T04:10:46;0.20;99.90
20158;DHT22;10239;56.820;24.416;2023-01-28T04:13:28;0.30;99.90
20158;DHT22;10239;56.820;24.416;2023-01-28T04:15:56;0.00;99.90
20158;DHT22;10239;56.820;24.416;2023-01-28T04:18:25;-0.40;99.90
20158;DHT22;10239;56.820;24.416;2023-01-28T04:20:56;-0.40;99.90
20158;DHT22;10239;56.820;24.416;2023-01-28T04:23:23;-0.60;99.90
20158;DHT22;10239;56.820;24.416;2023-01-28T04:25:51;-0.60;99.90
20158;DHT22;10239;56.820;24.416;2023-01-28T04:28:21;-0.70;99.90
20158;DHT22;10239;56.820;24.416;2023-01-28T04:30:50;-0.50;99.90
20158;DHT22;10239;56.820;24.416;2023-01-28T04:33:25;-0.30;99.90
20158;DHT22;10239;56.820;24.416;2023-01-28T04:36:11;-0.20;99.90
20158;DHT22;10239;56.820;24.416;2023-01-28T04:38:46;0.00;99.90
20158;DHT22;10239;56.820;24.416;2023-01-28T04:41:28;0.10;99.90
20158;DHT22;10239;56.820;24.416;2023-01-28T04:44:01;0.20;99.90
20158;DHT22;10239;56.820;24.416;2023-01-28T04:46:47;0.30;99.90
20158;DHT22;10239;56.820;24.416;2023-01-28T04:49:27;0.40;99.90
20158;DHT22;10239;56.820;24.416;2023-01-28T04:52:27;0.50;99.90
20158;DHT22;10239;56.820;24.416;2023-01-28T04:55:03;0.40;99.90
20158;DHT22;10239;56.820;24.416;2023-01-28T04:57:31;0.40;99.90
20158;DHT22;10239;56.820;24.416;2023-01-28T04:59:58;0.30;99.90
20158;DHT22;10239;56.820;24.416;2023-01-28T05:02:26;0.00;99.90
20158;DHT22;10239;56.820;24.416;2023-01-28T05:04:53;-0.20;99.90
20158;DHT22;10239;56.820;24.416;2023-01-28T05:07:49;-0.40;99.90
20158;DHT22;10239;56.820;24.416;2023-01-28T05:10:17;-0.40;99.90
20158;DHT22;10239;56.820;24.416;2023-01-28T05:12:46;-0.50;99.90
20158;DHT22;10239;56.820;24.416;2023-01-28T05:15:15;-0.70;99.90
20158;DHT22;10239;56.820;24.416;2023-01-28T05:17:44;-0.60;99.90
20158;DHT22;10239;56.820;24.416;2023-01-28T05:20:14;-0.50;99.90
20158;DHT22;10239;56.820;24.416;2023-01-28T05:22:43;-0.40;99.90
20158;DHT22;10239;56.820;24.416;2023-01-28T05:25:31;-0.30;99.90
20158;DHT22;10239;56.820;24.416;2023-01-28T05:27:59;-0.20;99.90
20158;DHT22;10239;56.820;24.416;2023-01-28T05:30:26;0.00;99.90
20158;DHT22;10239;56.820;24.416;2023-01-28T05:32:54;0.10;99.90
20158;DHT22;10239;56.820;24.416;2023-01-28T05:35:22;0.20;99.90
20158;DHT22;10239;56.820;24.416;2023-01-28T05:37:50;0.20;99.90
20158;DHT22;10239;56.820;24.416;2023-01-28T05:40:18;0.30;99.90
20158;DHT22;10239;56.820;24.416;2023-01-28T05:42:45;0.30;99.90
20158;DHT22;10239;56.820;24.416;2023-01-28T05:45:25;0.30;99.90
20158;DHT22;10239;56.820;24.416;2023-01-28T05:48:01;0.20;99.90
20158;DHT22;10239;56.820;24.416;2023-01-28T05:50:49;0.20;99.90
20158;DHT22;10239;56.820;24.416;2023-01-28T05:53:27;0.30;99.90
20158;DHT22;10239;56.820;24.416;2023-01-28T05:55:55;0.40;99.90
20158;DHT22;10239;56.820;24.416;2023-01-28T05:58:23;0.50;99.90
20158;DHT22;10239;56.820;24.416;2023-01-28T06:00:54;0.50;99.90
20158;DHT22;10239;56.820;24.416;2023-01-28T06:03:28;0.60;99.90
20158;DHT22;10239;56.820;24.416;2023-01-28T06:05:55;0.60;99.90
20158;DHT22;10239;56.820;24.416;2023-01-28T06:08:23;0.60;99.90
20158;DHT22;10239;56.820;24.416;2023-01-28T06:10:50;0.60;99.90
20158;DHT22;10239;56.820;24.416;2023-01-28T06:13:19;0.40;99.90
20158;DHT22;10239;56.820;24.416;2023-01-28T06:16:07;0.30;99.90
20158;DHT22;10239;56.820;24.416;2023-01-28T06:18:58;0.10;99.90
20158;DHT22;10239;56.820;24.416;2023-01-28T06:21:26;-0.30;99.90
20158;DHT22;10239;56.820;24.416;2023-01-28T06:23:57;-0.30;99.90
20158;DHT22;10239;56.820;24.416;2023-01-28T06:26:24;-0.10;99.90
20158;DHT22;10239;56.820;24.416;2023-01-28T06:28:52;-0.20;99.90
20158;DHT22;10239;56.820;24.416;2023-01-28T06:31:19;-0.10;99.90
20158;DHT22;10239;56.820;24.416;2023-01-28T06:33:46;0.00;99.90
20158;DHT22;10239;56.820;24.416;2023-01-28T06:36:14;-0.10;99.90
20158;DHT22;10239;56.820;24.416;2023-01-28T06:38:41;-0.10;99.90
20158;DHT22;10239;56.820;24.416;2023-01-28T06:41:08;0.00;99.90
20158;DHT22;10239;56.820;24.416;2023-01-28T06:43:36;0.10;99.90
20158;DHT22;10239;56.820;24.416;2023-01-28T06:46:03;0.20;99.90
20158;DHT22;10239;56.820;24.416;2023-01-28T06:48:31;0.20;99.90
20158;DHT22;10239;56.820;24.416;2023-01-28T06:50:58;0.30;99.90
20158;DHT22;10239;56.820;24.416;2023-01-28T06:53:26;0.40;99.90
20158;DHT22;10239;56.820;24.416;2023-01-28T06:55:53;0.40;99.90
20158;DHT22;10239;56.820;24.416;2023-01-28T06:58:21;0.40;99.90
20158;DHT22;10239;56.820;24.416;2023-01-28T07:00:49;0.20;99.90
20158;DHT22;10239;56.820;24.416;2023-01-28T07:03:16;0.20;99.90
20158;DHT22;10239;56.820;24.416;2023-01-28T07:05:44;0.30;99.90
20158;DHT22;10239;56.820;24.416;2023-01-28T07:08:11;0.30;99.90
20158;DHT22;10239;56.820;24.416;2023-01-28T07:10:39;0.30;99.90
20158;DHT22;10239;56.820;24.416;2023-01-28T07:13:07;-0.10;99.90
20158;DHT22;10239;56.820;24.416;2023-01-28T07:15:34;0.10;99.90
20158;DHT22;10239;56.820;24.416;2023-01-28T07:18:02;0.00;99.90
20158;DHT22;10239;56.820;24.416;2023-01-28T07:20:29;0.10;99.90
20158;DHT22;10239;56.820;24.416;2023-01-28T07:22:57;0.20;99.90
20158;DHT22;10239;56.820;24.416;2023-01-28T07:25:24;-0.20;99.90
20158;DHT22;10239;56.820;24.416;2023-01-28T07:27:52;-0.10;99.90
20158;DHT22;10239;56.820;24.416;2023-01-28T07:30:20;-0.10;99.90
20158;DHT22;10239;56.820;24.416;2023-01-28T07:32:55;0.10;99.90
20158;DHT22;10239;56.820;24.416;2023-01-28T07:35:24;0.00;99.90
20158;DHT22;10239;56.820;24.416;2023-01-28T07:38:00;-0.10;99.90
20158;DHT22;10239;56.820;24.416;2023-01-28T07:40:28;0.10;99.90
20158;DHT22;10239;56.820;24.416;2023-01-28T07:42:56;0.10;99.90
20158;DHT22;10239;56.820;24.416;2023-01-28T07:45:25;0.10;99.90
20158;DHT22;10239;56.820;24.416;2023-01-28T07:47:57;0.00;99.90
20158;DHT22;10239;56.820;24.416;2023-01-28T07:50:26;0.20;99.90
20158;DHT22;10239;56.820;24.416;2023-01-28T07:52:56;0.20;99.90
20158;DHT22;10239;56.820;24.416;2023-01-28T07:55:24;0.20;99.90
20158;DHT22;10239;56.820;24.416;2023-01-28T07:57:58;0.10;99.90
20158;DHT22;10239;56.820;24.416;2023-01-28T08:00:28;-0.20;99.90
20158;DHT22;10239;56.820;24.416;2023-01-28T08:03:01;0.00;99.90
20158;DHT22;10239;56.820;24.416;2023-01-28T08:05:50;0.00;99.90
20158;DHT22;10239;56.820;24.416;2023-01-28T08:08:19;0.20;99.90
20158;DHT22;10239;56.820;24.416;2023-01-28T08:10:46;0.30;99.90
20158;DHT22;10239;56.820;24.416;2023-01-28T08:13:16;0.40;99.90
20158;DHT22;10239;56.820;24.416;2023-01-28T08:15:44;0.20;99.90
20158;DHT22;10239;56.820;24.416;2023-01-28T08:18:14;0.30;99.90
20158;DHT22;10239;56.820;24.416;2023-01-28T08:20:43;0.30;99.90
20158;DHT22;10239;56.820;24.416;2023-01-28T08:23:21;0.40;99.90
20158;DHT22;10239;56.820;24.416;2023-01-28T08:25:50;0.50;99.90
20158;DHT22;10239;56.820;24.416;2023-01-28T08:28:18;0.50;99.90
20158;DHT22;10239;56.820;24.416;2023-01-28T08:30:46;0.40;99.90
20158;DHT22;10239;56.820;24.416;2023-01-28T08:33:15;0.30;99.90
20158;DHT22;10239;56.820;24.416;2023-01-28T08:35:43;-0.10;99.90
20158;DHT22;10239;56.820;24.416;2023-01-28T08:38:12;-0.10;99.90
20158;DHT22;10239;56.820;24.416;2023-01-28T08:40:41;-0.20;99.90
20158;DHT22;10239;56.820;24.416;2023-01-28T08:43:09;-0.20;99.90
20158;DHT22;10239;56.820;24.416;2023-01-28T08:45:38;-0.30;99.90
20158;DHT22;10239;56.820;24.416;2023-01-28T08:48:09;-0.30;99.90
20158;DHT22;10239;56.820;24.416;2023-01-28T08:50:40;-0.10;99.90
20158;DHT22;10239;56.820;24.416;2023-01-28T08:53:14;0.00;99.90
20158;DHT22;10239;56.820;24.416;2023-01-28T08:55:42;0.00;99.90
20158;DHT22;10239;56.820;24.416;2023-01-28T08:58:14;0.20;99.90
20158;DHT22;10239;56.820;24.416;2023-01-28T09:00:43;0.40;99.90
20158;DHT22;10239;56.820;24.416;2023-01-28T09:03:11;0.40;99.90
20158;DHT22;10239;56.820;24.416;2023-01-28T09:05:39;0.40;99.90
20158;DHT22;10239;56.820;24.416;2023-01-28T09:08:09;0.40;99.90
20158;DHT22;10239;56.820;24.416;2023-01-28T09:10:37;0.30;99.90
20158;DHT22;10239;56.820;24.416;2023-01-28T09:13:10;0.40;99.90
20158;DHT22;10239;56.820;24.416;2023-01-28T09:15:39;0.30;99.90
20158;DHT22;10239;56.820;24.416;2023-01-28T09:18:07;0.20;99.90
20158;DHT22;10239;56.820;24.416;2023-01-28T09:20:36;0.10;99.90
20158;DHT22;10239;56.820;24.416;2023-01-28T09:23:04;0.10;99.90
20158;DHT22;10239;56.820;24.416;2023-01-28T09:25:31;-0.20;99.90
20158;DHT22;10239;56.820;24.416;2023-01-28T09:27:59;0.00;99.90
20158;DHT22;10239;56.820;24.416;2023-01-28T09:30:27;0.20;99.90
20158;DHT22;10239;56.820;24.416;2023-01-28T09:32:56;0.30;99.90
20158;DHT22;10239;56.820;24.416;2023-01-28T09:35:24;0.20;99.90
20158;DHT22;10239;56.820;24.416;2023-01-28T09:37:56;0.30;99.90
20158;DHT22;10239;56.820;24.416;2023-01-28T09:40:50;0.50;99.90
20158;DHT22;10239;56.820;24.416;2023-01-28T09:46:11;0.50;99.90
20158;DHT22;10239;56.820;24.416;2023-01-28T09:48:43;0.60;99.90
20158;DHT22;10239;56.820;24.416;2023-01-28T09:51:26;0.80;99.90
20158;DHT22;10239;56.820;24.416;2023-01-28T09:53:58;0.90;99.90
20158;DHT22;10239;56.820;24.416;2023-01-28T09:56:30;0.90;99.90
20158;DHT22;10239;56.820;24.416;2023-01-28T09:59:18;0.90;99.90
20158;DHT22;10239;56.820;24.416;2023-01-28T10:08:30;0.70;99.90
20158;DHT22;10239;56.820;24.416;2023-01-28T10:16:48;0.50;99.90
20158;DHT22;10239;56.820;24.416;2023-01-28T10:19:25;0.70;99.90
20158;DHT22;10239;56.820;24.416;2023-01-28T10:22:01;0.80;99.90
20158;DHT22;10239;56.820;24.416;2023-01-28T10:24:33;0.90;99.90
20158;DHT22;10239;56.820;24.416;2023-01-28T10:27:25;1.00;99.90
20158;DHT22;10239;56.820;24.416;2023-01-28T10:29:54;1.00;99.90
20158;DHT22;10239;56.820;24.416;2023-01-28T10:32:32;1.10;99.90
20158;DHT22;10239;56.820;24.416;2023-01-28T10:35:03;1.10;99.90
20158;DHT22;10239;56.820;24.416;2023-01-28T10:37:33;1.20;99.90
20158;DHT22;10239;56.820;24.416;2023-01-28T10:40:02;1.00;99.90
20158;DHT22;10239;56.820;24.416;2023-01-28T10:42:37;0.70;99.90
20158;DHT22;10239;56.820;24.416;2023-01-28T10:45:31;0.80;99.90
20158;DHT22;10239;56.820;24.416;2023-01-28T10:50:55;0.80;99.90
20158;DHT22;10239;56.820;24.416;2023-01-28T10:53:40;0.70;99.90
20158;DHT22;10239;56.820;24.416;2023-01-28T10:56:26;0.70;99.90
20158;DHT22;10239;56.820;24.416;2023-01-28T10:59:01;0.70;99.90
20158;DHT22;10239;56.820;24.416;2023-01-28T11:01:48;0.70;99.90
20158;DHT22;10239;56.820;24.416;2023-01-28T11:04:21;0.60;99.90
20158;DHT22;10239;56.820;24.416;2023-01-28T11:07:16;0.60;99.90
20158;DHT22;10239;56.820;24.416;2023-01-28T11:09:50;0.90;99.90
20158;DHT22;10239;56.820;24.416;2023-01-28T11:12:23;1.00;99.90
20158;DHT22;10239;56.820;24.416;2023-01-28T11:14:58;1.00;99.90
20158;DHT22;10239;56.820;24.416;2023-01-28T11:17:32;0.80;99.90
20158;DHT22;10239;56.820;24.416;2023-01-28T11:20:18;0.50;99.90
20158;DHT22;10239;56.820;24.416;2023-01-28T11:22:47;0.40;99.90
20158;DHT22;10239;56.820;24.416;2023-01-28T11:25:33;0.20;99.90
20158;DHT22;10239;56.820;24.416;2023-01-28T11:28:06;0.10;99.90
20158;DHT22;10239;56.820;24.416;2023-01-28T11:30:37;0.20;99.90
20158;DHT22;10239;56.820;24.416;2023-01-28T11:33:21;0.40;99.90
20158;DHT22;10239;56.820;24.416;2023-01-28T11:36:03;0.50;99.90
20158;DHT22;10239;56.820;24.416;2023-01-28T11:38:31;0.70;99.90
20158;DHT22;10239;56.820;24.416;2023-01-28T11:41:00;0.80;99.90
20158;DHT22;10239;56.820;24.416;2023-01-28T11:43:29;1.00;99.90
20158;DHT22;10239;56.820;24.416;2023-01-28T11:51:35;1.10;99.90
20158;DHT22;10239;56.820;24.416;2023-01-28T12:08:14;0.70;99.90
20158;DHT22;10239;56.820;24.416;2023-01-28T12:14:53;0.80;99.90
20158;DHT22;10239;56.820;24.416;2023-01-28T12:27:59;0.70;99.90
20158;DHT22;10239;56.820;24.416;2023-01-28T12:33:40;0.50;99.90
20158;DHT22;10239;56.820;24.416;2023-01-28T12:39:19;0.50;99.90
20158;DHT22;10239;56.820;24.416;2023-01-28T12:42:09;0.50;99.90
20158;DHT22;10239;56.820;24.416;2023-01-28T12:44:48;0.60;99.90
20158;DHT22;10239;56.820;24.416;2023-01-28T12:47:33;0.60;99.90
20158;DHT22;10239;56.820;24.416;2023-01-28T12:50:19;0.80;99.90
20158;DHT22;10239;56.820;24.416;2023-01-28T12:52:57;0.70;99.90
20158;DHT22;10239;56.820;24.416;2023-01-28T12:57:57;0.60;99.90
20158;DHT22;10239;56.820;24.416;2023-01-28T13:00:35;0.50;99.90
20158;DHT22;10239;56.820;24.416;2023-01-28T13:05:52;0.60;99.90
20158;DHT22;10239;56.820;24.416;2023-01-28T13:08:27;0.60;99.90
20158;DHT22;10239;56.820;24.416;2023-01-28T13:10:57;0.70;99.90
20158;DHT22;10239;56.820;24.416;2023-01-28T13:13:30;0.60;99.90
20158;DHT22;10239;56.820;24.416;2023-01-28T13:15:59;0.50;99.90
20158;DHT22;10239;56.820;24.416;2023-01-28T13:18:43;0.40;99.90
20158;DHT22;10239;56.820;24.416;2023-01-28T13:21:33;0.20;99.90
20158;DHT22;10239;56.820;24.416;2023-01-28T13:31:54;0.20;99.90
20158;DHT22;10239;56.820;24.416;2023-01-28T13:34:34;0.00;99.90
20158;DHT22;10239;56.820;24.416;2023-01-28T13:39:48;-0.30;99.90
20158;DHT22;10239;56.820;24.416;2023-01-28T13:42:30;-0.40;99.90
20158;DHT22;10239;56.820;24.416;2023-01-28T13:47:46;-0.70;99.90
20158;DHT22;10239;56.820;24.416;2023-01-28T13:50:21;-0.80;99.90
20158;DHT22;10239;56.820;24.416;2023-01-28T13:55:46;-0.70;99.90
20158;DHT22;10239;56.820;24.416;2023-01-28T13:58:37;-0.60;99.90
20158;DHT22;10239;56.820;24.416;2023-01-28T14:10:37;-0.80;99.90
20158;DHT22;10239;56.820;24.416;2023-01-28T14:19:10;-0.90;99.90
20158;DHT22;10239;56.820;24.416;2023-01-28T14:21:39;-1.00;99.90
20158;DHT22;10239;56.820;24.416;2023-01-28T14:24:15;-1.00;99.90
20158;DHT22;10239;56.820;24.416;2023-01-28T14:32:28;-1.20;99.90
20158;DHT22;10239;56.820;24.416;2023-01-28T14:35:00;-1.30;99.90
20158;DHT22;10239;56.820;24.416;2023-01-28T14:37:32;-1.30;99.90
20158;DHT22;10239;56.820;24.416;2023-01-28T14:40:06;-1.30;99.90
20158;DHT22;10239;56.820;24.416;2023-01-28T14:42:43;-1.30;99.90
20158;DHT22;10239;56.820;24.416;2023-01-28T14:54:09;-1.90;99.90
20158;DHT22;10239;56.820;24.416;2023-01-28T14:59:45;-1.60;99.90
20158;DHT22;10239;56.820;24.416;2023-01-28T15:02:32;-1.50;99.90
20158;DHT22;10239;56.820;24.416;2023-01-28T15:05:20;-1.50;99.90
20158;DHT22;10239;56.820;24.416;2023-01-28T15:07:48;-1.50;99.90
20158;DHT22;10239;56.820;24.416;2023-01-28T15:10:26;-1.40;99.90
20158;DHT22;10239;56.820;24.416;2023-01-28T15:13:02;-1.40;99.90
20158;DHT22;10239;56.820;24.416;2023-01-28T15:15:37;-1.30;99.90
20158;DHT22;10239;56.820;24.416;2023-01-28T15:18:30;-1.30;99.90
20158;DHT22;10239;56.820;24.416;2023-01-28T15:20:58;-1.20;99.90
20158;DHT22;10239;56.820;24.416;2023-01-28T15:23:38;-1.10;99.90
20158;DHT22;10239;56.820;24.416;2023-01-28T15:26:20;-1.10;99.90
20158;DHT22;10239;56.820;24.416;2023-01-28T15:28:48;-1.10;99.90
20158;DHT22;10239;56.820;24.416;2023-01-28T15:31:21;-1.10;99.90
20158;DHT22;10239;56.820;24.416;2023-01-28T15:34:19;-1.20;99.90
20158;DHT22;10239;56.820;24.416;2023-01-28T15:36:47;-1.20;99.90
20158;DHT22;10239;56.820;24.416;2023-01-28T15:39:21;-1.10;99.90
20158;DHT22;10239;56.820;24.416;2023-01-28T15:44:37;-1.10;99.90
20158;DHT22;10239;56.820;24.416;2023-01-28T15:47:22;-1.10;99.90
20158;DHT22;10239;56.820;24.416;2023-01-28T15:49:53;-1.10;99.90
20158;DHT22;10239;56.820;24.416;2023-01-28T15:52:32;-1.10;99.90
20158;DHT22;10239;56.820;24.416;2023-01-28T15:55:02;-1.30;99.90
20158;DHT22;10239;56.820;24.416;2023-01-28T15:57:32;-1.20;99.90
20158;DHT22;10239;56.820;24.416;2023-01-28T16:00:11;-1.40;99.90
20158;DHT22;10239;56.820;24.416;2023-01-28T16:03:07;-1.50;99.90
20158;DHT22;10239;56.820;24.416;2023-01-28T16:05:38;-1.50;99.90
20158;DHT22;10239;56.820;24.416;2023-01-28T16:08:11;-1.60;99.90
20158;DHT22;10239;56.820;24.416;2023-01-28T16:10:51;-1.50;99.90
20158;DHT22;10239;56.820;24.416;2023-01-28T16:13:22;-1.50;99.90
20158;DHT22;10239;56.820;24.416;2023-01-28T16:15:54;-1.50;99.90
20158;DHT22;10239;56.820;24.416;2023-01-28T16:20:53;-1.50;99.90
20158;DHT22;10239;56.820;24.416;2023-01-28T16:23:23;-1.50;99.90
20158;DHT22;10239;56.820;24.416;2023-01-28T16:26:21;-1.60;99.90
20158;DHT22;10239;56.820;24.416;2023-01-28T16:28:49;-1.40;99.90
20158;DHT22;10239;56.820;24.416;2023-01-28T16:31:17;-1.40;99.90
20158;DHT22;10239;56.820;24.416;2023-01-28T16:33:45;-1.30;99.90
20158;DHT22;10239;56.820;24.416;2023-01-28T16:36:14;-1.30;99.90
20158;DHT22;10239;56.820;24.416;2023-01-28T16:38:42;-1.30;99.90
20158;DHT22;10239;56.820;24.416;2023-01-28T16:41:59;-1.30;99.90
20158;DHT22;10239;56.820;24.416;2023-01-28T16:44:01;-1.20;99.90
20158;DHT22;10239;56.820;24.416;2023-01-28T16:46:32;-1.20;99.90
20158;DHT22;10239;56.820;24.416;2023-01-28T16:49:00;-1.30;99.90
20158;DHT22;10239;56.820;24.416;2023-01-28T16:51:28;-1.20;99.90
20158;DHT22;10239;56.820;24.416;2023-01-28T16:53:56;-1.40;99.90
20158;DHT22;10239;56.820;24.416;2023-01-28T16:56:26;-1.40;99.90
20158;DHT22;10239;56.820;24.416;2023-01-28T16:59:13;-1.40;99.90
20158;DHT22;10239;56.820;24.416;2023-01-28T17:01:43;-1.40;99.90
20158;DHT22;10239;56.820;24.416;2023-01-28T17:04:11;-1.40;99.90
20158;DHT22;10239;56.820;24.416;2023-01-28T17:06:41;-1.40;99.90
20158;DHT22;10239;56.820;24.416;2023-01-28T17:09:11;-1.30;99.90
20158;DHT22;10239;56.820;24.416;2023-01-28T17:11:39;-1.30;99.90
20158;DHT22;10239;56.820;24.416;2023-01-28T17:14:07;-1.40;99.90
20158;DHT22;10239;56.820;24.416;2023-01-28T17:16:35;-1.40;99.90
20158;DHT22;10239;56.820;24.416;2023-01-28T17:19:03;-1.40;99.90
20158;DHT22;10239;56.820;24.416;2023-01-28T17:21:30;-1.40;99.90
20158;DHT22;10239;56.820;24.416;2023-01-28T17:23:59;-1.40;99.90
20158;DHT22;10239;56.820;24.416;2023-01-28T17:26:27;-1.50;99.90
20158;DHT22;10239;56.820;24.416;2023-01-28T17:28:55;-1.40;99.90
20158;DHT22;10239;56.820;24.416;2023-01-28T17:31:22;-1.30;99.90
20158;DHT22;10239;56.820;24.416;2023-01-28T17:33:53;-1.30;99.90
20158;DHT22;10239;56.820;24.416;2023-01-28T17:36:22;-1.30;99.90
20158;DHT22;10239;56.820;24.416;2023-01-28T17:38:50;-1.30;99.90
20158;DHT22;10239;56.820;24.416;2023-01-28T17:41:19;-1.40;99.90
20158;DHT22;10239;56.820;24.416;2023-01-28T17:43:50;-1.30;99.90
20158;DHT22;10239;56.820;24.416;2023-01-28T17:46:18;-1.30;99.90
20158;DHT22;10239;56.820;24.416;2023-01-28T17:48:46;-1.30;99.90
20158;DHT22;10239;56.820;24.416;2023-01-28T17:51:14;-1.30;99.90
20158;DHT22;10239;56.820;24.416;2023-01-28T17:53:49;-1.20;99.90
20158;DHT22;10239;56.820;24.416;2023-01-28T17:56:19;-1.20;99.90
20158;DHT22;10239;56.820;24.416;2023-01-28T17:59:00;-1.20;99.90
20158;DHT22;10239;56.820;24.416;2023-01-28T18:01:30;-1.20;99.90
20158;DHT22;10239;56.820;24.416;2023-01-28T18:03:57;-1.00;99.90
20158;DHT22;10239;56.820;24.416;2023-01-28T18:06:32;-1.00;99.90
20158;DHT22;10239;56.820;24.416;2023-01-28T18:09:00;-1.10;99.90
20158;DHT22;10239;56.820;24.416;2023-01-28T18:11:27;-1.20;99.90
20158;DHT22;10239;56.820;24.416;2023-01-28T18:13:56;-1.30;99.90
20158;DHT22;10239;56.820;24.416;2023-01-28T18:16:23;-1.10;99.90
20158;DHT22;10239;56.820;24.416;2023-01-28T18:18:51;-1.10;99.90
20158;DHT22;10239;56.820;24.416;2023-01-28T18:21:33;-1.10;99.90
20158;DHT22;10239;56.820;24.416;2023-01-28T18:24:19;-0.90;99.90